Terminal Aerodrome Forecast
Issued by NWS

Home | Current Version | Previous Version | Graphics & Text | Print | Product List | Glossary On
Versions: 1 2 3 4 5 6 7 8 9 10 11 12 13 14 15 16 17 18 19 20 21 22 23 24 25 26 27 28
471
FTUS45 KGGW 221130
TAFGDV
TAF
KGDV 221130Z 2212/2312 00000KT P6SM BKN050
     FM221900 VRB04KT P6SM VCSH BKN090
     FM230300 06006KT P6SM -SHRA BKN070
     FM231100 07006KT 6SM -SHRA BKN028=

USA.gov is the U.S. government's official web portal to all federal, state and local government web resources and services.